Shokyu Maru — JG5288 — position and weather

sailwx.info

Track history (hours):
 
Tides and Currents Weather Stations Pressure Air Temp Water Temp Dewpoint Dewpoint Depression Visibility Wind Speed Wind Dir Waves Ship Positions

Shokyu Maru

Last reported at 2017-Nov-24 05:22 UTC. Time now 2017-Nov-24 05:48 UTC.
Position N 35°31' E 140°02'.

Length 91 m; draft 3.8 m.

Type: Ship. MMSI: 431000253.

Date/timePositionNaut miles runAvg speedWind from/ knotsBaromVisibWave heightAir tempDewpointWater temp
2017-Nov-24 05:22N 35°31' E 140°02'0 0.0
2017-Nov-24 04:58N 35°31' E 140°02'0 0.1
2017-Nov-24 04:24N 35°31' E 140°02'1 3.1
2017-Nov-24 04:00N 35°32' E 140°02'3 5.6
2017-Nov-24 03:31N 35°34' E 140°00'611.3
2017-Nov-24 03:01N 35°40' E 139°58'1 0.2
2017-Nov-23 21:40N 35°40' E 139°57'2 8.2
2017-Nov-23 21:28N 35°39' E 139°58'4 7.9
2017-Nov-23 21:00N 35°36' E 139°55'0 0.4
2017-Nov-23 20:28N 35°36' E 139°55'0 0.0
2017-Nov-23 19:58N 35°36' E 139°55'0 0.0
2017-Nov-23 19:28N 35°36' E 139°55'0 0.0
2017-Nov-23 18:58N 35°36' E 139°55'0 0.0
2017-Nov-23 18:28N 35°36' E 139°55'0 0.0
2017-Nov-23 17:58N 35°36' E 139°55'0 0.0
2017-Nov-23 17:28N 35°36' E 139°55'0 0.0
2017-Nov-23 16:07N 35°36' E 139°55'0 0.0
2017-Nov-23 11:01N 35°36' E 139°55'0 0.0
2017-Nov-23 10:19N 35°36' E 139°55'0 0.0
2017-Nov-23 09:55N 35°36' E 139°55'0 0.0
2017-Nov-23 09:25N 35°36' E 139°55'2 4.4
2017-Nov-23 09:00N 35°34' E 139°56'610.8
2017-Nov-23 08:29N 35°30' E 140°01'1 0.2
2017-Nov-23 03:58N 35°30' E 140°02'2 4.9
2017-Nov-23 03:30N 35°31' E 139°60'1 1.6
2017-Nov-23 03:00N 35°32' E 139°60'611.7
2017-Nov-23 02:30N 35°38' E 139°59'3 5.0
2017-Nov-23 01:56N 35°41' E 139°59'0 0.0
2017-Nov-23 01:26N 35°41' E 139°59'0 0.0
2017-Nov-23 00:59N 35°41' E 139°59'0 0.0
2017-Nov-23 00:29N 35°41' E 139°59'0 0.0
2017-Nov-22 23:56N 35°41' E 139°59'0 0.0
2017-Nov-22 23:29N 35°41' E 139°59'0 0.0
2017-Nov-22 22:56N 35°41' E 139°59'0 0.0
2017-Nov-22 22:26N 35°41' E 139°59'0 0.0
2017-Nov-22 21:59N 35°41' E 139°59'0 0.0
2017-Nov-22 21:23N 35°41' E 139°59'0 0.0
2017-Nov-22 20:59N 35°41' E 139°59'0 0.0
2017-Nov-22 20:29N 35°41' E 139°59'0 0.0
2017-Nov-22 19:59N 35°41' E 139°59'0 0.0
2017-Nov-22 19:29N 35°41' E 139°59'  
2017-Nov-19 21:46N 35°40' E 139°56'3 9.1
2017-Nov-19 21:28N 35°38' E 139°58'4 8.1
2017-Nov-19 21:01N 35°36' E 139°55'0 0.1
2017-Nov-19 19:54N 35°36' E 139°55'0 0.0
2017-Nov-19 18:30N 35°36' E 139°55'0 0.0
2017-Nov-19 12:57N 35°36' E 139°55'0 0.0
2017-Nov-19 12:27N 35°36' E 139°55'0 0.0
2017-Nov-19 12:00N 35°36' E 139°55'0 0.0
2017-Nov-19 11:30N 35°36' E 139°55'0 0.0
2017-Nov-19 11:00N 35°36' E 139°55'0 0.0
2017-Nov-19 10:30N 35°36' E 139°55'0 0.0
2017-Nov-19 10:00N 35°36' E 139°55'0 0.0
2017-Nov-19 09:27N 35°36' E 139°55'0 0.0
2017-Nov-19 09:00N 35°36' E 139°55'0 0.0
2017-Nov-19 08:30N 35°36' E 139°55'0 0.0
2017-Nov-19 07:57N 35°36' E 139°55'0 0.0
2017-Nov-19 07:30N 35°36' E 139°55'0 0.4
2017-Nov-19 07:00N 35°36' E 139°55'511.1
2017-Nov-19 06:30N 35°32' E 139°51'4 7.6
2017-Nov-19 06:01N 35°31' E 139°46'0 0.2
2017-Nov-19 05:30N 35°31' E 139°46'0 0.0
2017-Nov-19 05:00N 35°31' E 139°46'0 0.0
2017-Nov-19 04:30N 35°31' E 139°46'0 0.0
2017-Nov-19 04:00N 35°31' E 139°46'0 0.0
2017-Nov-19 03:30N 35°31' E 139°46'0 0.0
2017-Nov-19 02:57N 35°31' E 139°46'0 0.0
2017-Nov-19 02:30N 35°31' E 139°46'0 0.0
2017-Nov-19 01:57N 35°31' E 139°46'0 0.0
2017-Nov-19 01:30N 35°31' E 139°46'0 0.0
2017-Nov-19 01:00N 35°31' E 139°46'0 0.0
2017-Nov-19 00:27N 35°31' E 139°46'0 0.0
2017-Nov-19 00:00N 35°31' E 139°46'3 6.0
2017-Nov-18 23:30N 35°29' E 139°43'3 5.6
2017-Nov-18 23:00N 35°27' E 139°45'3 6.8
2017-Nov-18 22:30N 35°29' E 139°48'612.1
2017-Nov-18 22:00N 35°34' E 139°52'2 1.2
2017-Nov-18 20:05N 35°36' E 139°54'0 0.0
2017-Nov-18 19:41N 35°36' E 139°54'0 0.0
2017-Nov-18 18:44N 35°36' E 139°54'0 0.0
2017-Nov-18 18:27N 35°36' E 139°54'0 0.0
2017-Nov-18 17:59N 35°36' E 139°54'0 0.0
2017-Nov-18 17:24N 35°36' E 139°54'0 0.0
2017-Nov-18 16:46N 35°36' E 139°54'0 0.0
2017-Nov-18 15:22N 35°36' E 139°54'0 0.0
2017-Nov-18 14:55N 35°36' E 139°54'0 0.0
2017-Nov-18 09:20N 35°36' E 139°54'0 0.1
2017-Nov-18 08:59N 35°36' E 139°54'0 0.0
2017-Nov-18 08:28N 35°36' E 139°54'0 0.0
2017-Nov-18 06:41N 35°36' E 139°54'1 3.3
2017-Nov-18 06:30N 35°36' E 139°55'5 7.6
2017-Nov-18 05:54N 35°40' E 139°57'9 2.0
2017-Nov-18 01:22N 35°31' E 140°00'1 0.4
2017-Nov-17 21:53N 35°30' E 140°01'3 6.6
2017-Nov-17 21:25N 35°32' E 139°59'410.8
2017-Nov-17 21:00N 35°36' E 139°55'0 0.1
2017-Nov-17 19:40N 35°36' E 139°55'0 0.0
2017-Nov-17 19:28N 35°36' E 139°55'0 0.0
2017-Nov-17 18:55N 35°36' E 139°55'0 0.0
2017-Nov-17 18:28N 35°36' E 139°55'0 0.0
2017-Nov-17 17:58N 35°36' E 139°55'0 0.0
2017-Nov-17 17:19N 35°36' E 139°55'0 0.0
2017-Nov-17 12:52N 35°36' E 139°55'0 0.0
2017-Nov-17 12:28N 35°36' E 139°55'0 0.0
2017-Nov-17 08:16N 35°36' E 139°55'0 0.1
2017-Nov-17 07:49N 35°36' E 139°55'2 4.5
2017-Nov-17 07:26N 35°37' E 139°57'7 1.1
2017-Nov-17 01:28N 35°31' E 140°00'1 0.4
2017-Nov-16 22:25N 35°30' E 140°01'3 6.7
2017-Nov-16 22:00N 35°32' E 139°59'5 0.4
2017-Nov-16 10:35N 35°36' E 139°55'0 0.0
2017-Nov-16 09:09N 35°36' E 139°55'2 7.7
2017-Nov-16 08:55N 35°37' E 139°57'6 0.9
2017-Nov-16 02:29N 35°31' E 140°00'1 0.4
2017-Nov-15 22:25N 35°30' E 140°01'2 3.9
2017-Nov-15 22:00N 35°31' E 139°60'510.9
2017-Nov-15 21:30N 35°35' E 139°55'1 0.1
2017-Nov-15 17:47N 35°36' E 139°54'0 0.0
2017-Nov-15 14:35N 35°36' E 139°54'0 0.0
2017-Nov-15 14:20N 35°36' E 139°54'0 0.0
2017-Nov-15 13:59N 35°36' E 139°54'0 0.1
2017-Nov-15 13:29N 35°36' E 139°54'0 0.0
2017-Nov-15 12:59N 35°36' E 139°54'0 0.0
2017-Nov-15 12:29N 35°36' E 139°54'0 0.0
2017-Nov-15 11:59N 35°36' E 139°54'0 0.1
2017-Nov-15 11:29N 35°36' E 139°54'0 0.1
2017-Nov-15 10:47N 35°36' E 139°54'0 0.1
2017-Nov-15 10:26N 35°36' E 139°54'0 0.0
2017-Nov-15 09:14N 35°36' E 139°54'0 0.0
2017-Nov-15 08:50N 35°36' E 139°54'0 0.0
2017-Nov-15 08:23N 35°36' E 139°54'1 2.0
2017-Nov-15 07:59N 35°36' E 139°55'7 0.8
2017-Nov-14 22:04N 35°31' E 140°02'0 1.7
2017-Nov-14 22:00N 35°31' E 140°02'3 4.1
2017-Nov-14 21:22N 35°33' E 140°01'  
Track history (hours):
 
Tides and Currents Weather Stations Pressure Air Temp Water Temp Dewpoint Dewpoint Depression Visibility Wind Speed Wind Dir Waves Ship Positions

Shokyu Maru

Last reported at 2017-Nov-24 05:22 UTC. Time now 2017-Nov-24 05:48 UTC.
Position N 35°31' E 140°02'.

Length 91 m; draft 3.8 m.

Type: Ship. MMSI: 431000253.

Date/timePositionNaut miles runAvg speedWind from/ knotsBaromVisibWave heightAir tempDewpointWater temp
2017-Nov-24 05:22N 35°31' E 140°02'0 0.0
2017-Nov-24 04:58N 35°31' E 140°02'0 0.1
2017-Nov-24 04:24N 35°31' E 140°02'1 3.1
2017-Nov-24 04:00N 35°32' E 140°02'3 5.6
2017-Nov-24 03:31N 35°34' E 140°00'611.3
2017-Nov-24 03:01N 35°40' E 139°58'1 0.2
2017-Nov-23 21:40N 35°40' E 139°57'2 8.2
2017-Nov-23 21:28N 35°39' E 139°58'4 7.9
2017-Nov-23 21:00N 35°36' E 139°55'0 0.4
2017-Nov-23 20:28N 35°36' E 139°55'0 0.0
2017-Nov-23 19:58N 35°36' E 139°55'0 0.0
2017-Nov-23 19:28N 35°36' E 139°55'0 0.0
2017-Nov-23 18:58N 35°36' E 139°55'0 0.0
2017-Nov-23 18:28N 35°36' E 139°55'0 0.0
2017-Nov-23 17:58N 35°36' E 139°55'0 0.0
2017-Nov-23 17:28N 35°36' E 139°55'0 0.0
2017-Nov-23 16:07N 35°36' E 139°55'0 0.0
2017-Nov-23 11:01N 35°36' E 139°55'0 0.0
2017-Nov-23 10:19N 35°36' E 139°55'0 0.0
2017-Nov-23 09:55N 35°36' E 139°55'0 0.0
2017-Nov-23 09:25N 35°36' E 139°55'2 4.4
2017-Nov-23 09:00N 35°34' E 139°56'610.8
2017-Nov-23 08:29N 35°30' E 140°01'1 0.2
2017-Nov-23 03:58N 35°30' E 140°02'2 4.9
2017-Nov-23 03:30N 35°31' E 139°60'1 1.6
2017-Nov-23 03:00N 35°32' E 139°60'611.7
2017-Nov-23 02:30N 35°38' E 139°59'3 5.0
2017-Nov-23 01:56N 35°41' E 139°59'0 0.0
2017-Nov-23 01:26N 35°41' E 139°59'0 0.0
2017-Nov-23 00:59N 35°41' E 139°59'0 0.0
2017-Nov-23 00:29N 35°41' E 139°59'0 0.0
2017-Nov-22 23:56N 35°41' E 139°59'0 0.0
2017-Nov-22 23:29N 35°41' E 139°59'0 0.0
2017-Nov-22 22:56N 35°41' E 139°59'0 0.0
2017-Nov-22 22:26N 35°41' E 139°59'0 0.0
2017-Nov-22 21:59N 35°41' E 139°59'0 0.0
2017-Nov-22 21:23N 35°41' E 139°59'0 0.0
2017-Nov-22 20:59N 35°41' E 139°59'0 0.0
2017-Nov-22 20:29N 35°41' E 139°59'0 0.0
2017-Nov-22 19:59N 35°41' E 139°59'0 0.0
2017-Nov-22 19:29N 35°41' E 139°59'  
2017-Nov-19 21:46N 35°40' E 139°56'3 9.1
2017-Nov-19 21:28N 35°38' E 139°58'4 8.1
2017-Nov-19 21:01N 35°36' E 139°55'0 0.1
2017-Nov-19 19:54N 35°36' E 139°55'0 0.0
2017-Nov-19 18:30N 35°36' E 139°55'0 0.0
2017-Nov-19 12:57N 35°36' E 139°55'0 0.0
2017-Nov-19 12:27N 35°36' E 139°55'0 0.0
2017-Nov-19 12:00N 35°36' E 139°55'0 0.0
2017-Nov-19 11:30N 35°36' E 139°55'0 0.0
2017-Nov-19 11:00N 35°36' E 139°55'0 0.0
2017-Nov-19 10:30N 35°36' E 139°55'0 0.0
2017-Nov-19 10:00N 35°36' E 139°55'0 0.0
2017-Nov-19 09:27N 35°36' E 139°55'0 0.0
2017-Nov-19 09:00N 35°36' E 139°55'0 0.0
2017-Nov-19 08:30N 35°36' E 139°55'0 0.0
2017-Nov-19 07:57N 35°36' E 139°55'0 0.0
2017-Nov-19 07:30N 35°36' E 139°55'0 0.4
2017-Nov-19 07:00N 35°36' E 139°55'511.1
2017-Nov-19 06:30N 35°32' E 139°51'4 7.6
2017-Nov-19 06:01N 35°31' E 139°46'0 0.2
2017-Nov-19 05:30N 35°31' E 139°46'0 0.0
2017-Nov-19 05:00N 35°31' E 139°46'0 0.0
2017-Nov-19 04:30N 35°31' E 139°46'0 0.0
2017-Nov-19 04:00N 35°31' E 139°46'0 0.0
2017-Nov-19 03:30N 35°31' E 139°46'0 0.0
2017-Nov-19 02:57N 35°31' E 139°46'0 0.0
2017-Nov-19 02:30N 35°31' E 139°46'0 0.0
2017-Nov-19 01:57N 35°31' E 139°46'0 0.0
2017-Nov-19 01:30N 35°31' E 139°46'0 0.0
2017-Nov-19 01:00N 35°31' E 139°46'0 0.0
2017-Nov-19 00:27N 35°31' E 139°46'0 0.0
2017-Nov-19 00:00N 35°31' E 139°46'3 6.0
2017-Nov-18 23:30N 35°29' E 139°43'3 5.6
2017-Nov-18 23:00N 35°27' E 139°45'3 6.8
2017-Nov-18 22:30N 35°29' E 139°48'612.1
2017-Nov-18 22:00N 35°34' E 139°52'2 1.2
2017-Nov-18 20:05N 35°36' E 139°54'0 0.0
2017-Nov-18 19:41N 35°36' E 139°54'0 0.0
2017-Nov-18 18:44N 35°36' E 139°54'0 0.0
2017-Nov-18 18:27N 35°36' E 139°54'0 0.0
2017-Nov-18 17:59N 35°36' E 139°54'0 0.0
2017-Nov-18 17:24N 35°36' E 139°54'0 0.0
2017-Nov-18 16:46N 35°36' E 139°54'0 0.0
2017-Nov-18 15:22N 35°36' E 139°54'0 0.0
2017-Nov-18 14:55N 35°36' E 139°54'0 0.0
2017-Nov-18 09:20N 35°36' E 139°54'0 0.1
2017-Nov-18 08:59N 35°36' E 139°54'0 0.0
2017-Nov-18 08:28N 35°36' E 139°54'0 0.0
2017-Nov-18 06:41N 35°36' E 139°54'1 3.3
2017-Nov-18 06:30N 35°36' E 139°55'5 7.6
2017-Nov-18 05:54N 35°40' E 139°57'9 2.0
2017-Nov-18 01:22N 35°31' E 140°00'1 0.4
2017-Nov-17 21:53N 35°30' E 140°01'3 6.6
2017-Nov-17 21:25N 35°32' E 139°59'410.8
2017-Nov-17 21:00N 35°36' E 139°55'0 0.1
2017-Nov-17 19:40N 35°36' E 139°55'0 0.0
2017-Nov-17 19:28N 35°36' E 139°55'0 0.0
2017-Nov-17 18:55N 35°36' E 139°55'0 0.0
2017-Nov-17 18:28N 35°36' E 139°55'0 0.0
2017-Nov-17 17:58N 35°36' E 139°55'0 0.0
2017-Nov-17 17:19N 35°36' E 139°55'0 0.0
2017-Nov-17 12:52N 35°36' E 139°55'0 0.0
2017-Nov-17 12:28N 35°36' E 139°55'0 0.0
2017-Nov-17 08:16N 35°36' E 139°55'0 0.1
2017-Nov-17 07:49N 35°36' E 139°55'2 4.5
2017-Nov-17 07:26N 35°37' E 139°57'7 1.1
2017-Nov-17 01:28N 35°31' E 140°00'1 0.4
2017-Nov-16 22:25N 35°30' E 140°01'3 6.7
2017-Nov-16 22:00N 35°32' E 139°59'5 0.4
2017-Nov-16 10:35N 35°36' E 139°55'0 0.0
2017-Nov-16 09:09N 35°36' E 139°55'2 7.7
2017-Nov-16 08:55N 35°37' E 139°57'6 0.9
2017-Nov-16 02:29N 35°31' E 140°00'1 0.4
2017-Nov-15 22:25N 35°30' E 140°01'2 3.9
2017-Nov-15 22:00N 35°31' E 139°60'510.9
2017-Nov-15 21:30N 35°35' E 139°55'1 0.1
2017-Nov-15 17:47N 35°36' E 139°54'0 0.0
2017-Nov-15 14:35N 35°36' E 139°54'0 0.0
2017-Nov-15 14:20N 35°36' E 139°54'0 0.0
2017-Nov-15 13:59N 35°36' E 139°54'0 0.1
2017-Nov-15 13:29N 35°36' E 139°54'0 0.0
2017-Nov-15 12:59N 35°36' E 139°54'0 0.0
2017-Nov-15 12:29N 35°36' E 139°54'0 0.0
2017-Nov-15 11:59N 35°36' E 139°54'0 0.1
2017-Nov-15 11:29N 35°36' E 139°54'0 0.1
2017-Nov-15 10:47N 35°36' E 139°54'0 0.1
2017-Nov-15 10:26N 35°36' E 139°54'0 0.0
2017-Nov-15 09:14N 35°36' E 139°54'0 0.0
2017-Nov-15 08:50N 35°36' E 139°54'0 0.0
2017-Nov-15 08:23N 35°36' E 139°54'1 2.0
2017-Nov-15 07:59N 35°36' E 139°55'7 0.8
2017-Nov-14 22:04N 35°31' E 140°02'0 1.7
2017-Nov-14 22:00N 35°31' E 140°02'3 4.1
2017-Nov-14 21:22N 35°33' E 140°01'  

Dump ship's entire track history